Time;durP1;ratioP1;P1;durP2;ratioP2;P2;SDS_P1;SDS_P2;PMS_P1;PMS_P2;Temp;Humidity;BMP_temperature;BMP_pressure;BME280_temperature;BME280_humidity;BME280_pressure;Samples;Min_cycle;Max_cycle;Signal;HPM_P1;HPM_P2
2021/03/10 00:01:49;;;;;;;41.63;22.63;;;2.60;99.90;;;;;;8332518;28;20033;-63
2021/03/10 00:05:50;;;;;;;42.25;22.80;;;2.70;99.90;;;;;;8331334;28;20033;-63
2021/03/10 00:09:51;;;;;;;37.55;21.15;;;2.70;99.90;;;;;;8331614;28;20021;-63
2021/03/10 00:13:52;;;;;;;42.47;22.75;;;2.80;99.90;;;;;;8331600;28;20022;-63
2021/03/10 00:17:52;;;;;;;41.83;23.83;;;2.60;99.90;;;;;;8332318;28;20492;-63
2021/03/10 00:21:53;;;;;;;41.80;22.60;;;2.70;99.90;;;;;;8314318;28;20029;-63
2021/03/10 00:25:53;;;;;;;41.53;22.77;;;2.60;99.90;;;;;;8332171;28;20037;-63
2021/03/10 00:29:56;;;;;;;41.88;23.05;;;2.40;99.90;;;;;;8331687;28;20061;-63
2021/03/10 00:33:57;;;;;;;37.47;21.75;;;2.20;99.90;;;;;;8331966;28;20520;-63
2021/03/10 00:38:02;;;;;;;42.45;22.55;;;2.10;99.90;;;;;;8330572;28;20045;-63
2021/03/10 00:42:02;;;;;;;44.17;21.80;;;2.10;99.90;;;;;;8330264;28;20119;-63
2021/03/10 00:46:03;;;;;;;40.15;23.02;;;2.00;99.90;;;;;;8331132;28;20064;-63
2021/03/10 00:50:04;;;;;;;40.22;21.85;;;2.00;99.90;;;;;;8313445;28;20075;-63
2021/03/10 00:54:05;;;;;;;44.42;24.58;;;1.80;99.90;;;;;;8331133;28;20075;-63
2021/03/10 00:58:05;;;;;;;40.22;23.30;;;2.00;99.90;;;;;;8331131;28;20017;-63
2021/03/10 01:02:06;;;;;;;44.38;23.75;;;2.00;99.90;;;;;;8330738;28;20091;-63
2021/03/10 01:06:06;;;;;;;43.75;23.88;;;1.70;99.90;;;;;;8330725;28;20029;-63
2021/03/10 01:10:10;;;;;;;44.67;23.88;;;1.70;99.90;;;;;;8329128;28;20025;-63
2021/03/10 01:14:11;;;;;;;42.60;23.70;;;1.70;99.90;;;;;;8329829;28;20387;-63
2021/03/10 01:18:12;;;;;;;42.65;23.08;;;2.00;99.90;;;;;;8330326;28;20118;-63
2021/03/10 01:22:12;;;;;;;42.38;23.25;;;1.70;99.90;;;;;;8330078;28;20025;-63
2021/03/10 01:26:13;;;;;;;40.72;22.58;;;1.50;99.90;;;;;;8312568;28;20021;-63
2021/03/10 01:30:15;;;;;;;42.83;24.00;;;1.40;99.90;;;;;;8329930;28;20051;-63
2021/03/10 01:34:16;;;;;;;47.95;23.27;;;1.30;99.90;;;;;;8330237;28;20021;-63
2021/03/10 01:38:16;;;;;;;46.40;23.38;;;1.10;99.90;;;;;;8329952;28;20025;-63
2021/03/10 01:42:17;;;;;;;41.50;23.23;;;1.30;99.90;;;;;;8327379;28;20025;-63
2021/03/10 01:46:19;;;;;;;46.35;23.65;;;1.30;99.90;;;;;;8329276;28;20017;-63
2021/03/10 01:50:21;;;;;;;48.45;23.73;;;1.30;99.90;;;;;;8329233;28;20487;-63
2021/03/10 01:54:21;;;;;;;41.78;23.33;;;1.10;99.90;;;;;;8329391;28;20634;-63
2021/03/10 01:58:22;;;;;;;45.78;24.00;;;1.10;99.90;;;;;;8329529;28;20035;-63
2021/03/10 02:02:23;;;;;;;51.22;24.67;;;1.20;99.90;;;;;;8310637;28;20492;-63
2021/03/10 02:06:52;;;;;;;44.03;24.50;;;1.30;99.90;;;;;;8310962;28;20036;-63
2021/03/10 02:11:03;;;;;;;47.28;24.17;;;1.40;99.90;;;;;;8328167;28;20029;-63
2021/03/10 02:15:23;;;;;;;44.72;24.63;;;1.70;99.90;;;;;;8309575;28;20033;-63
2021/03/10 02:20:01;;;;;;;47.73;25.27;;;1.70;99.90;;;;;;8328267;28;20534;-63
2021/03/10 02:24:32;;;;;;;46.75;23.52;;;1.90;99.90;;;;;;8328298;28;20034;-63
2021/03/10 02:28:35;;;;;;;43.90;22.90;;;2.20;99.90;;;;;;8328333;28;20122;-63
2021/03/10 02:32:38;;;;;;;38.50;20.83;;;2.20;99.90;;;;;;8327884;28;20022;-63
2021/03/10 02:36:40;;;;;;;48.58;24.77;;;2.20;99.90;;;;;;8327866;28;20164;-63
2021/03/10 02:40:41;;;;;;;45.55;24.33;;;2.40;99.90;;;;;;8327065;28;20040;-63
2021/03/10 02:44:42;;;;;;;40.97;20.23;;;2.50;99.90;;;;;;8326287;28;20025;-63
2021/03/10 02:48:44;;;;;;;46.83;25.08;;;2.50;99.90;;;;;;8326370;28;20060;-62
2021/03/10 02:52:45;;;;;;;48.47;25.67;;;2.50;99.90;;;;;;8326276;28;20449;-63
2021/03/10 02:56:46;;;;;;;49.58;27.00;;;2.40;99.90;;;;;;8326657;28;20395;-63
2021/03/10 03:00:47;;;;;;;50.85;27.10;;;2.40;99.90;;;;;;8324178;28;20029;-63
2021/03/10 03:04:47;;;;;;;43.67;25.23;;;2.50;99.90;;;;;;8325023;28;20499;-63
2021/03/10 03:08:48;;;;;;;52.75;27.15;;;2.70;99.90;;;;;;8371824;22;20470;-71
2021/03/10 03:12:50;;;;;;;41.33;22.95;;;2.60;99.90;;;;;;8358806;28;20169;-71
2021/03/10 03:16:51;;;;;;;46.70;23.00;;;2.70;99.90;;;;;;8356406;28;20104;-71
2021/03/10 03:20:52;;;;;;;48.92;25.52;;;2.80;99.90;;;;;;8340361;28;20505;-71
2021/03/10 03:24:53;;;;;;;49.42;24.95;;;2.80;99.90;;;;;;8359794;28;20021;-70
2021/03/10 03:28:55;;;;;;;50.97;27.50;;;2.60;99.90;;;;;;8358785;28;20112;-71
2021/03/10 03:32:57;;;;;;;49.22;26.15;;;2.60;99.90;;;;;;8358699;28;20056;-71
2021/03/10 03:36:58;;;;;;;48.42;25.55;;;2.70;99.90;;;;;;8341509;28;20025;-71
2021/03/10 03:40:59;;;;;;;52.58;26.40;;;2.70;99.90;;;;;;8358199;28;20659;-71
2021/03/10 03:45:00;;;;;;;43.78;25.30;;;2.70;99.90;;;;;;8359302;28;20021;-71
2021/03/10 03:49:02;;;;;;;47.33;26.45;;;2.60;99.90;;;;;;8358353;28;20507;-71
2021/03/10 03:53:02;;;;;;;50.70;25.17;;;2.60;99.90;;;;;;8357873;28;20037;-71
2021/03/10 03:57:03;;;;;;;48.38;26.80;;;2.60;99.90;;;;;;8355811;28;20027;-71
2021/03/10 04:01:04;;;;;;;53.63;26.73;;;2.60;99.90;;;;;;8355071;28;20035;-71
2021/03/10 04:05:05;;;;;;;53.10;26.58;;;2.50;99.90;;;;;;8359243;28;20059;-71
2021/03/10 04:09:06;;;;;;;49.08;25.35;;;2.40;99.90;;;;;;8358494;28;20111;-71
2021/03/10 04:13:07;;;;;;;48.97;26.00;;;2.40;99.90;;;;;;8357196;28;20040;-71
2021/03/10 04:17:07;;;;;;;44.85;25.65;;;2.60;99.90;;;;;;8342896;28;20473;-71
2021/03/10 04:21:08;;;;;;;49.15;25.67;;;2.60;99.90;;;;;;8356737;28;20029;-71
2021/03/10 04:25:10;;;;;;;44.72;25.20;;;2.70;99.90;;;;;;8357945;28;20025;-72
2021/03/10 04:29:10;;;;;;;47.70;25.73;;;2.50;99.90;;;;;;8362852;28;20025;-71
2021/03/10 04:33:11;;;;;;;47.55;25.58;;;2.60;99.90;;;;;;8362330;28;20572;-72
2021/03/10 04:37:11;;;;;;;46.95;24.98;;;2.60;99.90;;;;;;8361579;28;20070;-71
2021/03/10 04:41:12;;;;;;;50.95;25.95;;;2.60;99.90;;;;;;8344544;28;20028;-71
2021/03/10 04:45:13;;;;;;;50.28;26.42;;;2.40;99.90;;;;;;8362645;28;20560;-71
2021/03/10 04:49:14;;;;;;;50.40;26.23;;;2.60;99.90;;;;;;8362578;28;20045;-71
2021/03/10 04:53:14;;;;;;;46.22;25.10;;;2.50;99.90;;;;;;8363222;28;20033;-71
2021/03/10 04:57:15;;;;;;;52.10;25.75;;;2.70;99.90;;;;;;8363417;28;20036;-71
2021/03/10 05:01:15;;;;;;;47.75;25.98;;;2.40;99.90;;;;;;8362839;28;20028;-71
2021/03/10 05:05:16;;;;;;;44.03;24.30;;;2.50;99.90;;;;;;8361455;28;20112;-72
2021/03/10 05:09:17;;;;;;;47.72;24.27;;;2.60;99.90;;;;;;8358207;28;20032;-71
2021/03/10 05:13:17;;;;;;;49.72;24.92;;;2.50;99.90;;;;;;8361950;28;20097;-71
2021/03/10 05:17:18;;;;;;;48.22;25.10;;;2.40;99.90;;;;;;8362725;28;20531;-71
2021/03/10 05:21:19;;;;;;;48.53;24.70;;;2.30;99.90;;;;;;8363403;28;20029;-71
2021/03/10 05:25:19;;;;;;;49.80;25.42;;;2.30;99.90;;;;;;8362684;28;20108;-72
2021/03/10 05:29:20;;;;;;;42.63;23.73;;;3.30;99.90;;;;;;8362430;28;20037;-71
2021/03/10 05:33:20;;;;;;;43.70;23.13;;;3.90;99.90;;;;;;8361515;28;20110;-70
2021/03/10 05:37:21;;;;;;;43.63;23.65;;;3.70;99.90;;;;;;8356871;28;20048;-71
2021/03/10 05:41:22;;;;;;;45.25;24.77;;;3.90;99.90;;;;;;8360854;28;20032;-64
2021/03/10 05:45:22;;;;;;;40.63;21.52;;;3.40;99.90;;;;;;8350680;28;20036;-70
2021/03/10 05:49:23;;;;;;;38.25;22.73;;;4.90;99.90;;;;;;8361110;28;20021;-69
2021/03/10 05:53:25;;;;;;;40.88;23.10;;;5.00;99.90;;;;;;8360766;28;20025;-70
2021/03/10 05:57:25;;;;;;;44.42;23.17;;;4.10;99.90;;;;;;8360113;28;20028;-70
2021/03/10 06:01:27;;;;;;;39.00;20.15;;;3.60;99.90;;;;;;8360655;28;20036;-70
2021/03/10 06:05:27;;;;;;;44.13;24.27;;;3.40;99.90;;;;;;8341055;28;20503;-70
2021/03/10 06:09:28;;;;;;;46.80;23.98;;;3.00;99.90;;;;;;8343364;28;20033;-70
2021/03/10 06:13:32;;;;;;;46.40;24.77;;;2.90;99.90;;;;;;8343177;28;20087;-69
2021/03/10 06:17:49;;;;;;;48.17;23.98;;;2.70;99.90;;;;;;8361246;28;20056;-70
2021/03/10 06:21:50;;;;;;;41.78;22.92;;;2.60;99.90;;;;;;8361551;28;20035;-69
2021/03/10 06:25:50;;;;;;;42.60;24.50;;;2.70;99.90;;;;;;8343573;28;20521;-69
2021/03/10 06:29:55;;;;;;;44.28;23.80;;;2.80;99.90;;;;;;8358984;28;20068;-69
2021/03/10 06:34:05;;;;;;;48.42;23.13;;;2.90;99.90;;;;;;8355239;28;20090;-69
2021/03/10 06:38:12;;;;;;;42.95;21.45;;;2.90;99.90;;;;;;8358144;28;20044;-69
2021/03/10 06:42:18;;;;;;;38.72;21.35;;;2.90;99.90;;;;;;8358194;28;20021;-69
2021/03/10 06:46:19;;;;;;;36.17;18.17;;;2.90;99.90;;;;;;8341357;28;20384;-69
2021/03/10 06:50:20;;;;;;;46.25;25.13;;;2.90;99.90;;;;;;8358858;28;20017;-69
2021/03/10 06:54:25;;;;;;;45.55;22.98;;;2.90;99.90;;;;;;8339882;28;20025;-69
2021/03/10 06:58:26;;;;;;;41.67;22.83;;;3.00;99.90;;;;;;8340614;28;20028;-70
2021/03/10 07:02:29;;;;;;;37.88;20.15;;;3.20;99.90;;;;;;8357937;28;20032;-69
2021/03/10 07:06:30;;;;;;;43.92;24.55;;;3.10;99.90;;;;;;8358747;28;20059;-70
2021/03/10 07:10:30;;;;;;;42.40;23.05;;;3.10;99.90;;;;;;8346999;28;20070;-70
2021/03/10 07:14:33;;;;;;;38.05;20.75;;;3.10;99.90;;;;;;8357604;28;20075;-70
2021/03/10 07:18:34;;;;;;;33.55;18.52;;;3.30;99.90;;;;;;8357826;28;20170;-70
2021/03/10 07:22:41;;;;;;;39.72;22.50;;;3.50;99.90;;;;;;8358229;28;20091;-70
2021/03/10 07:26:44;;;;;;;45.00;23.15;;;3.60;99.90;;;;;;8357672;28;20021;-70
2021/03/10 07:30:47;;;;;;;36.72;19.42;;;3.50;99.90;;;;;;8358848;28;20483;-69
2021/03/10 07:34:58;;;;;;;40.25;22.33;;;3.60;99.90;;;;;;8357990;28;20044;-69
2021/03/10 07:38:59;;;;;;;38.50;21.63;;;3.60;99.90;;;;;;8359179;28;20037;-69
2021/03/10 07:42:59;;;;;;;41.20;21.35;;;3.80;99.90;;;;;;8358384;28;20029;-69
2021/03/10 07:47:05;;;;;;;35.88;19.42;;;3.90;99.90;;;;;;8355726;28;20017;-69
2021/03/10 07:51:06;;;;;;;27.02;14.73;;;4.10;99.90;;;;;;8356730;28;20030;-69
2021/03/10 07:55:06;;;;;;;40.63;22.50;;;4.10;99.90;;;;;;8358108;28;20909;-70
2021/03/10 07:59:18;;;;;;;42.15;21.63;;;4.40;99.90;;;;;;8358085;28;20120;-72
2021/03/10 08:03:32;;;;;;;37.60;19.98;;;4.80;99.90;;;;;;8345345;28;20056;-70
2021/03/10 08:07:33;;;;;;;29.02;13.93;;;5.10;99.90;;;;;;8363366;28;20106;-70
2021/03/10 08:11:42;;;;;;;35.03;19.27;;;5.50;99.90;;;;;;8364345;28;20029;-70
2021/03/10 08:15:43;;;;;;;32.47;17.70;;;5.50;99.90;;;;;;8346884;28;20116;-70
2021/03/10 08:19:50;;;;;;;25.27;13.25;;;5.50;99.90;;;;;;8364731;28;20419;-70
2021/03/10 08:23:51;;;;;;;35.70;19.60;;;5.10;99.90;;;;;;8363805;28;20053;-70
2021/03/10 08:27:51;;;;;;;23.17;12.70;;;5.30;99.90;;;;;;8364806;28;20032;-70
2021/03/10 08:31:55;;;;;;;37.33;19.45;;;5.60;99.90;;;;;;8344821;28;20029;-70
2021/03/10 08:35:55;;;;;;;31.50;16.50;;;5.50;99.90;;;;;;8363134;28;20032;-69
2021/03/10 08:39:56;;;;;;;30.33;15.45;;;5.60;99.90;;;;;;8341009;28;20546;-70
2021/03/10 08:44:03;;;;;;;30.40;17.63;;;5.80;99.90;;;;;;8362682;28;20033;-70
2021/03/10 08:48:09;;;;;;;30.88;19.13;;;5.90;99.90;;;;;;8361280;28;20071;-70
2021/03/10 08:52:14;;;;;;;29.73;16.88;;;5.90;99.90;;;;;;8363204;28;20037;-70
2021/03/10 08:56:15;;;;;;;32.30;18.52;;;6.10;99.90;;;;;;8345757;28;20032;-70
2021/03/10 09:00:21;;;;;;;35.00;18.63;;;6.20;99.90;;;;;;8363914;28;20606;-70
2021/03/10 09:04:23;;;;;;;37.42;19.55;;;6.40;99.90;;;;;;8362918;28;20446;-71
2021/03/10 09:08:26;;;;;;;33.88;17.70;;;6.50;99.90;;;;;;8366764;22;20761;-63
2021/03/10 09:12:28;;;;;;;27.13;13.93;;;6.60;99.90;;;;;;8373185;28;20032;-64
2021/03/10 09:16:29;;;;;;;37.63;18.98;;;6.80;99.90;;;;;;8395055;28;20506;-63
2021/03/10 09:20:32;;;;;;;30.65;17.90;;;6.70;99.90;;;;;;8367212;28;20040;-64
2021/03/10 09:24:33;;;;;;;28.45;16.00;;;6.70;99.90;;;;;;8328867;28;20124;-63
2021/03/10 09:28:35;;;;;;;27.88;14.75;;;6.80;99.90;;;;;;8348080;28;20394;-63
2021/03/10 09:32:44;;;;;;;32.35;17.77;;;7.00;99.90;;;;;;8359929;28;20482;-63
2021/03/10 09:36:46;;;;;;;30.83;17.13;;;7.50;99.90;;;;;;8328433;28;20043;-63
2021/03/10 09:40:53;;;;;;;28.35;15.60;;;8.00;99.90;;;;;;8381659;28;20059;-63
2021/03/10 09:44:53;;;;;;;28.63;16.80;;;8.40;99.90;;;;;;8357037;28;20133;-64
2021/03/10 09:49:03;;;;;;;22.17;12.73;;;8.70;99.90;;;;;;8361301;28;20039;-63
2021/03/10 09:53:23;;;;;;;32.00;16.05;;;8.60;99.90;;;;;;8353325;28;20148;-63
2021/03/10 09:57:29;;;;;;;27.33;16.17;;;8.30;99.90;;;;;;8348661;28;20025;-63
2021/03/10 10:01:30;;;;;;;28.10;15.45;;;8.10;99.90;;;;;;8343392;28;20569;-63
2021/03/10 10:05:36;;;;;;;28.60;15.55;;;7.70;99.90;;;;;;8346315;28;20036;-63
2021/03/10 10:09:37;;;;;;;22.17;12.35;;;7.40;99.90;;;;;;8349594;28;20021;-64
2021/03/10 10:13:40;;;;;;;18.98;11.43;;;7.70;99.90;;;;;;8358012;28;20032;-64
2021/03/10 10:17:42;;;;;;;21.95;12.18;;;8.50;99.90;;;;;;8355812;28;20025;-64
2021/03/10 10:21:47;;;;;;;24.25;14.57;;;9.20;99.90;;;;;;8354843;28;20113;-64
2021/03/10 10:25:47;;;;;;;24.15;14.40;;;9.80;99.90;;;;;;8355148;28;20020;-64
2021/03/10 10:29:48;;;;;;;21.27;12.68;;;10.10;99.90;;;;;;8358324;28;20430;-64
2021/03/10 10:33:48;;;;;;;24.92;13.20;;;9.80;99.90;;;;;;8359382;28;20114;-64
2021/03/10 10:37:49;;;;;;;21.50;12.57;;;9.70;99.90;;;;;;8359353;28;20036;-64
2021/03/10 10:41:49;;;;;;;17.02;9.23;;;9.20;99.90;;;;;;8359061;28;20047;-64
2021/03/10 10:45:50;;;;;;;23.05;12.18;;;8.40;99.90;;;;;;8357077;28;20037;-64
2021/03/10 10:49:51;;;;;;;21.60;13.07;;;7.80;99.90;;;;;;8339537;28;20033;-63
2021/03/10 10:53:52;;;;;;;22.17;12.45;;;7.30;99.90;;;;;;8354242;28;20020;-63
2021/03/10 10:57:52;;;;;;;19.95;11.25;;;6.90;99.90;;;;;;8348956;28;20057;-64
2021/03/10 11:01:53;;;;;;;18.50;10.82;;;6.90;99.90;;;;;;8341375;28;20064;-64
2021/03/10 11:05:54;;;;;;;18.60;10.95;;;6.80;99.90;;;;;;8358076;28;20052;-63
2021/03/10 11:09:54;;;;;;;21.85;12.57;;;6.60;99.90;;;;;;8358012;28;20024;-64
2021/03/10 11:13:55;;;;;;;23.27;12.13;;;6.60;99.90;;;;;;8340528;28;20044;-63
2021/03/10 11:17:56;;;;;;;19.98;12.30;;;6.70;99.90;;;;;;8355935;28;20028;-63
2021/03/10 11:21:57;;;;;;;14.18;7.57;;;6.90;99.90;;;;;;8355781;28;20045;-64
2021/03/10 11:25:59;;;;;;;19.85;11.18;;;7.20;99.90;;;;;;8357425;28;20490;-63
2021/03/10 11:29:59;;;;;;;18.13;9.75;;;7.40;99.90;;;;;;8352209;28;20017;-63
2021/03/10 11:34:00;;;;;;;23.27;11.88;;;8.20;99.90;;;;;;8343691;28;20106;-63
2021/03/10 11:38:01;;;;;;;17.92;9.43;;;8.20;99.90;;;;;;8353973;28;20403;-63
2021/03/10 11:42:01;;;;;;;21.25;10.88;;;9.20;99.90;;;;;;8356094;28;20487;-63
2021/03/10 11:46:02;;;;;;;20.48;10.95;;;8.70;99.90;;;;;;8357083;28;20017;-64
2021/03/10 11:50:03;;;;;;;19.33;10.65;;;8.20;99.90;;;;;;8354052;28;20025;-64
2021/03/10 11:54:04;;;;;;;17.63;10.48;;;8.50;99.90;;;;;;8345803;28;20036;-63
2021/03/10 11:58:05;;;;;;;11.10;6.72;;;8.50;99.90;;;;;;8354602;28;20053;-63
2021/03/10 12:02:06;;;;;;;17.80;10.70;;;10.00;99.90;;;;;;8353091;28;20108;-64
2021/03/10 12:06:07;;;;;;;;;;;12.60;99.90;;;;;;8357498;28;20090;-64
2021/03/10 12:10:07;;;;;;;;;;;14.70;93.50;;;;;;8356486;28;20460;-64
2021/03/10 12:14:08;;;;;;;;;;;12.30;94.60;;;;;;8357293;28;19912;-64
2021/03/10 12:18:08;;;;;;;;;;;10.60;99.20;;;;;;8355063;28;19913;-64
2021/03/10 12:22:09;;;;;;;;;;;9.90;99.90;;;;;;8337502;28;19912;-63
2021/03/10 12:26:10;;;;;;;;;;;9.40;99.90;;;;;;8340211;28;19913;-64
2021/03/10 12:30:10;;;;;;;;;;;9.40;99.90;;;;;;8355143;28;20339;-64
2021/03/10 12:34:11;;;;;;;;;;;11.10;99.90;;;;;;8352412;28;19904;-64
2021/03/10 12:38:11;;;;;;;59.00;19.70;;;12.90;93.00;;;;;;8343825;28;20456;-64
2021/03/10 12:42:12;;;;;;;46.70;18.17;;;14.60;90.00;;;;;;8354334;28;20035;-63
2021/03/10 12:46:13;;;;;;;42.90;18.33;;;13.90;86.20;;;;;;8355592;28;20533;-64
2021/03/10 12:50:14;;;;;;;51.28;19.45;;;14.90;80.50;;;;;;8343059;28;20017;-64
2021/03/10 12:54:15;;;;;;;95.53;26.10;;;15.40;77.50;;;;;;8341453;28;20040;-64
2021/03/10 12:58:15;;;;;;;93.47;24.75;;;15.20;76.10;;;;;;8359327;28;20467;-64
2021/03/10 13:02:16;;;;;;;84.97;23.50;;;15.10;74.70;;;;;;8360312;28;20025;-64
2021/03/10 13:06:16;;;;;;;81.70;23.20;;;14.70;72.70;;;;;;8354455;28;20053;-64
2021/03/10 13:10:17;;;;;;;54.75;19.52;;;12.70;77.30;;;;;;8360873;28;20038;-64
2021/03/10 13:14:18;;;;;;;42.63;17.95;;;11.60;79.50;;;;;;8344379;28;20040;-64
2021/03/10 13:18:19;;;;;;;39.72;17.20;;;12.90;77.80;;;;;;8361588;28;20487;-64
2021/03/10 13:22:19;;;;;;;40.67;17.60;;;14.30;72.70;;;;;;8361933;28;20103;-64
2021/03/10 13:26:21;;;;;;;47.10;19.50;;;16.90;62.90;;;;;;8359934;28;20372;-64
2021/03/10 13:30:22;;;;;;;32.05;16.23;;;17.70;57.20;;;;;;8361678;28;20017;-64
2021/03/10 13:34:22;;;;;;;32.67;16.15;;;16.60;60.40;;;;;;8361454;28;20067;-64
2021/03/10 13:38:23;;;;;;;37.63;17.30;;;17.30;58.00;;;;;;8341979;28;20029;-64
2021/03/10 13:42:24;;;;;;;30.02;15.80;;;17.60;56.60;;;;;;8361179;28;20028;-64
2021/03/10 13:46:25;;;;;;;35.08;16.63;;;16.60;57.10;;;;;;8342858;28;20021;-64
2021/03/10 13:50:25;;;;;;;32.42;16.42;;;14.80;60.90;;;;;;8360767;28;20060;-64
2021/03/10 13:54:26;;;;;;;37.75;17.25;;;14.30;62.80;;;;;;8360453;28;20021;-63
2021/03/10 13:58:27;;;;;;;34.83;17.27;;;14.40;63.50;;;;;;8339557;28;20083;-63
2021/03/10 14:02:27;;;;;;;38.55;17.70;;;14.80;61.60;;;;;;8359706;28;20044;-64
2021/03/10 14:06:28;;;;;;;42.50;18.30;;;16.50;58.00;;;;;;8339753;28;20395;-64
2021/03/10 14:10:29;;;;;;;37.25;17.17;;;17.00;55.80;;;;;;8351471;28;20082;-64
2021/03/10 14:14:29;;;;;;;41.25;18.08;;;14.30;61.50;;;;;;8337870;28;20111;-64
2021/03/10 14:18:30;;;;;;;39.72;17.98;;;12.40;67.40;;;;;;8336119;28;20035;-64
2021/03/10 14:22:30;;;;;;;37.72;17.55;;;11.20;73.10;;;;;;8343441;28;20123;-63
2021/03/10 14:26:31;;;;;;;38.80;17.42;;;10.60;76.90;;;;;;8358610;28;20036;-63
2021/03/10 14:30:31;;;;;;;40.28;18.08;;;10.30;79.10;;;;;;8355646;28;20501;-64
2021/03/10 14:34:32;;;;;;;40.22;17.75;;;10.00;78.60;;;;;;8356081;28;20025;-63
2021/03/10 14:38:32;;;;;;;42.55;17.75;;;10.10;80.10;;;;;;8358729;28;20027;-63
2021/03/10 14:42:33;;;;;;;44.28;18.27;;;10.20;79.10;;;;;;8355028;28;20032;-63
2021/03/10 14:46:34;;;;;;;42.38;17.80;;;10.20;79.00;;;;;;8358985;28;20021;-64
2021/03/10 14:50:34;;;;;;;41.85;17.95;;;10.20;77.40;;;;;;8358849;28;20502;-64
2021/03/10 14:54:35;;;;;;;41.88;18.27;;;10.10;80.40;;;;;;8358823;28;20056;-63
2021/03/10 14:58:36;;;;;;;41.20;18.02;;;9.90;78.90;;;;;;8355747;28;20021;-64
2021/03/10 15:02:37;;;;;;;42.30;18.73;;;9.90;81.20;;;;;;8348701;28;20352;-64
2021/03/10 15:06:39;;;;;;;40.15;18.00;;;10.00;82.40;;;;;;8351960;28;20041;-64
2021/03/10 15:10:39;;;;;;;39.53;17.20;;;10.10;79.80;;;;;;8363239;28;20032;-64
2021/03/10 15:14:40;;;;;;;40.22;17.80;;;10.40;79.20;;;;;;8366807;28;20139;-64
2021/03/10 15:18:41;;;;;;;38.25;17.20;;;11.10;79.10;;;;;;8364292;28;20031;-64
2021/03/10 15:22:41;;;;;;;39.15;17.70;;;11.90;75.30;;;;;;8357695;28;20029;-64
2021/03/10 15:26:42;;;;;;;38.45;17.65;;;12.10;71.10;;;;;;8357867;28;20024;-64
2021/03/10 15:30:43;;;;;;;39.88;22.23;;;11.90;71.80;;;;;;8380077;22;20060;-71
2021/03/10 15:34:44;;;;;;;39.63;18.17;;;11.60;74.10;;;;;;8390693;28;20043;-71
2021/03/10 15:38:44;;;;;;;42.35;18.75;;;12.30;71.70;;;;;;8378026;28;20024;-71
2021/03/10 15:42:47;;;;;;;43.90;18.88;;;12.60;70.50;;;;;;8364674;28;20044;-71
2021/03/10 15:46:47;;;;;;;40.15;17.67;;;12.70;68.50;;;;;;8353994;28;20036;-71
2021/03/10 15:50:48;;;;;;;43.83;19.45;;;12.70;67.80;;;;;;8352858;28;20487;-71
2021/03/10 15:54:49;;;;;;;46.63;19.27;;;12.40;69.00;;;;;;8349958;28;20445;-71
2021/03/10 15:58:52;;;;;;;44.17;19.23;;;12.00;70.20;;;;;;8330204;28;20047;-71
2021/03/10 16:02:52;;;;;;;47.45;19.52;;;11.70;70.40;;;;;;8347717;28;20072;-71
2021/03/10 16:06:53;;;;;;;45.42;19.70;;;11.10;72.30;;;;;;8363525;28;20021;-71
2021/03/10 16:10:53;;;;;;;46.67;19.13;;;10.80;73.50;;;;;;8349396;28;20031;-71
2021/03/10 16:14:54;;;;;;;45.50;19.30;;;10.90;75.00;;;;;;8345984;28;20033;-70
2021/03/10 16:18:54;;;;;;;42.13;18.95;;;11.00;72.40;;;;;;8331235;28;20047;-70
2021/03/10 16:22:55;;;;;;;39.80;17.95;;;11.00;74.20;;;;;;8358895;28;20041;-70
2021/03/10 16:26:56;;;;;;;39.17;18.02;;;10.90;72.00;;;;;;8368636;28;20049;-71
2021/03/10 16:30:57;;;;;;;36.65;17.33;;;10.60;73.60;;;;;;8348196;28;20422;-71
2021/03/10 16:34:57;;;;;;;38.33;17.88;;;10.20;74.80;;;;;;8368820;28;20033;-71
2021/03/10 16:38:58;;;;;;;40.15;18.85;;;9.70;76.50;;;;;;8356915;28;20435;-71
2021/03/10 16:42:58;;;;;;;37.78;17.35;;;9.30;78.80;;;;;;8363589;28;20055;-71
2021/03/10 16:46:59;;;;;;;41.00;17.65;;;9.00;80.90;;;;;;8362316;28;20556;-70
2021/03/10 16:51:00;;;;;;;38.60;17.35;;;8.60;84.70;;;;;;8356885;28;20106;-71
2021/03/10 16:55:02;;;;;;;24.65;14.60;;;8.10;87.10;;;;;;8359577;28;20094;-70
2021/03/10 16:59:03;;;;;;;21.80;14.32;;;7.80;88.90;;;;;;8361527;28;20079;-70
2021/03/10 17:03:04;;;;;;;20.60;14.25;;;7.40;90.40;;;;;;8344441;28;20031;-70
2021/03/10 17:07:05;;;;;;;21.50;14.25;;;7.10;91.40;;;;;;8362112;28;20646;-71
2021/03/10 17:11:05;;;;;;;20.60;14.43;;;6.70;92.70;;;;;;8352658;28;20041;-69
2021/03/10 17:15:08;;;;;;;;;;;6.60;93.60;;;;;;8353820;28;20081;-70
2021/03/10 17:19:08;;;;;;;;;;;6.70;94.40;;;;;;8355324;28;20079;-70
2021/03/10 17:23:09;;;;;;;20.47;12.60;;;6.80;99.90;;;;;;8347640;28;20975;-70
2021/03/10 17:27:10;;;;;;;23.52;14.93;;;6.80;99.90;;;;;;8360469;28;20021;-70
2021/03/10 17:31:11;;;;;;;22.13;14.50;;;6.60;99.90;;;;;;8359761;28;20044;-69
2021/03/10 17:35:13;;;;;;;22.00;14.75;;;6.30;99.90;;;;;;8358103;28;20032;-71
2021/03/10 17:39:13;;;;;;;21.73;14.45;;;6.10;99.90;;;;;;8366398;28;20481;-70
2021/03/10 17:43:14;;;;;;;23.27;15.60;;;5.90;99.90;;;;;;8364539;28;20033;-71
2021/03/10 17:47:14;;;;;;;23.48;14.85;;;5.80;99.90;;;;;;8350792;28;20059;-70
2021/03/10 17:51:15;;;;;;;22.70;13.53;;;5.60;99.90;;;;;;8352396;28;20414;-70
2021/03/10 17:55:16;;;;;;;;;;;5.50;99.90;;;;;;8358425;28;20418;-70
2021/03/10 17:59:16;;;;;;;;;;;5.50;99.90;;;;;;8345909;28;20020;-70
2021/03/10 18:03:18;;;;;;;;;;;5.30;99.90;;;;;;8356551;28;19983;-71
2021/03/10 18:07:19;;;;;;;;;;;5.10;99.90;;;;;;8357715;28;19920;-71
2021/03/10 18:11:20;;;;;;;;;;;4.90;99.90;;;;;;8342294;28;19939;-71
2021/03/10 18:15:20;;;;;;;;;;;4.70;99.90;;;;;;8346092;28;20405;-69
2021/03/10 18:19:21;;;;;;;;;;;4.50;99.90;;;;;;8356324;28;19920;-69
2021/03/10 18:23:21;;;;;;;43.50;16.17;;;4.50;99.90;;;;;;8358442;28;20450;-69
2021/03/10 18:27:25;;;;;;;;;;;4.30;99.90;;;;;;8358449;28;20035;-69
2021/03/10 18:31:25;;;;;;;;;;;4.10;99.90;;;;;;8333061;28;19920;-68
2021/03/10 18:35:26;;;;;;;;;;;4.10;99.90;;;;;;8351931;28;19916;-69
2021/03/10 18:39:26;;;;;;;;;;;4.00;99.90;;;;;;8353895;28;19912;-69
2021/03/10 18:43:27;;;;;;;;;;;3.90;99.90;;;;;;8360057;28;19913;-69
2021/03/10 18:47:27;;;;;;;;;;;4.00;99.90;;;;;;8360665;28;19912;-68
2021/03/10 18:51:29;;;;;;;;;;;4.10;99.90;;;;;;8337976;28;19909;-69
2021/03/10 18:55:30;;;;;;;;;;;4.10;99.90;;;;;;8335251;28;20042;-71
2021/03/10 18:59:30;;;;;;;;;;;4.00;99.90;;;;;;8337249;28;19955;-71
2021/03/10 19:03:31;;;;;;;;;;;3.80;99.90;;;;;;8318562;28;20007;-71
2021/03/10 19:07:31;;;;;;;;;;;3.80;99.90;;;;;;8320264;28;19970;-71
2021/03/10 19:11:32;;;;;;;;;;;3.80;99.90;;;;;;8335389;28;19919;-71
2021/03/10 19:15:33;;;;;;;;;;;3.90;99.90;;;;;;8334290;28;19963;-71
2021/03/10 19:19:33;;;;;;;;;;;3.80;99.90;;;;;;8336438;28;20425;-71
2021/03/10 19:23:34;;;;;;;;;;;3.70;99.90;;;;;;8324991;28;19920;-71
2021/03/10 19:27:36;;;;;;;;;;;3.40;99.90;;;;;;8345899;28;19913;-71
2021/03/10 19:31:36;;;;;;;;;;;3.50;99.90;;;;;;8321178;28;19967;-71
2021/03/10 19:35:37;;;;;;;;;;;3.60;99.90;;;;;;8339859;28;19962;-71
2021/03/10 19:39:38;;;;;;;;;;;3.50;99.90;;;;;;8337745;28;19966;-70
2021/03/10 19:43:38;;;;;;;;;;;3.40;99.90;;;;;;8335967;28;19920;-71
2021/03/10 19:47:39;;;;;;;;;;;3.30;99.90;;;;;;8338299;28;19916;-70
2021/03/10 19:51:40;;;;;;;;;;;3.20;99.90;;;;;;8334753;28;20003;-70
2021/03/10 19:55:41;;;;;;;;;;;3.30;99.90;;;;;;8337411;28;19948;-71
2021/03/10 19:59:42;;;;;;;;;;;3.40;99.90;;;;;;8337383;28;19953;-70
2021/03/10 20:03:42;;;;;;;;;;;3.50;99.90;;;;;;8327755;28;20234;-71
2021/03/10 20:07:43;;;;;;;;;;;3.50;99.90;;;;;;8328034;28;20410;-71
2021/03/10 20:11:44;;;;;;;;;;;3.60;99.90;;;;;;8347030;28;19909;-71
2021/03/10 20:15:45;;;;;;;;;;;3.60;99.90;;;;;;8346733;28;20063;-71
2021/03/10 20:19:45;;;;;;;;;;;3.40;99.90;;;;;;8344986;28;19913;-71
2021/03/10 20:23:46;;;;;;;;;;;3.50;99.90;;;;;;8338559;28;19979;-71
2021/03/10 20:27:46;;;;;;;;;;;3.40;99.90;;;;;;8338427;28;19933;-72
2021/03/10 20:31:47;;;;;;;;;;;3.30;99.90;;;;;;8351521;28;19913;-71
2021/03/10 20:35:49;;;;;;;;;;;3.20;99.90;;;;;;8362158;28;19912;-71
2021/03/10 20:39:49;;;;;;;;;;;3.10;99.90;;;;;;8359723;28;20010;-70
2021/03/10 20:43:51;;;;;;;;;;;3.10;99.90;;;;;;8364869;28;19946;-71
2021/03/10 20:47:51;;;;;;;;;;;2.80;99.90;;;;;;8364265;28;19962;-70
2021/03/10 20:51:52;;;;;;;;;;;2.60;99.90;;;;;;8358103;28;19908;-71
2021/03/10 20:55:52;;;;;;;;;;;2.70;99.90;;;;;;8342549;28;19916;-71
2021/03/10 20:59:53;;;;;;;;;;;2.60;99.90;;;;;;8344381;28;19913;-71
2021/03/10 21:03:53;;;;;;;;;;;2.60;99.90;;;;;;8356921;28;20548;-70
2021/03/10 21:07:54;;;;;;;;;;;2.50;99.90;;;;;;8362766;28;19996;-70